createdAt,value
2018-05-11T00:00:07.891Z,3.60
2018-05-11T00:02:34.384Z,3.08
2018-05-11T00:05:01.656Z,3.22
2018-05-11T00:07:28.791Z,3.08
2018-05-11T00:09:56.907Z,3.37
2018-05-11T00:12:23.489Z,3.62
2018-05-11T00:14:49.903Z,3.25
2018-05-11T00:17:16.298Z,3.40
2018-05-11T00:19:42.679Z,3.17
2018-05-11T00:22:09.068Z,3.40
2018-05-11T00:24:35.530Z,3.65
2018-05-11T00:27:02.062Z,3.28
2018-05-11T00:29:28.769Z,3.15
2018-05-11T00:31:55.173Z,3.40
2018-05-11T00:34:22.385Z,3.30
2018-05-11T00:36:48.810Z,3.08
2018-05-11T00:39:15.323Z,3.30
2018-05-11T00:41:41.802Z,3.20
2018-05-11T00:44:08.339Z,3.30
2018-05-11T00:46:34.741Z,3.50
2018-05-11T00:49:01.162Z,3.30
2018-05-11T00:51:27.631Z,3.47
2018-05-11T00:53:54.037Z,3.78
2018-05-11T00:56:20.423Z,3.17
2018-05-11T00:58:47.020Z,2.80
2018-05-11T01:01:13.397Z,3.75
2018-05-11T01:03:40.685Z,3.17
2018-05-11T01:06:07.938Z,3.42
2018-05-11T01:08:34.443Z,3.10
2018-05-11T01:11:01.686Z,3.35
2018-05-11T01:13:28.293Z,3.50
2018-05-11T01:15:54.717Z,3.03
2018-05-11T01:18:21.281Z,3.17
2018-05-11T01:20:47.643Z,3.40
2018-05-11T01:23:14.829Z,3.47
2018-05-11T01:25:41.454Z,3.22
2018-05-11T01:28:08.189Z,3.05
2018-05-11T01:30:34.935Z,3.25
2018-05-11T01:33:01.402Z,3.55
2018-05-11T01:35:27.914Z,3.60
2018-05-11T01:37:54.342Z,3.50
2018-05-11T01:40:21.062Z,3.15
2018-05-11T01:42:47.449Z,3.25
2018-05-11T01:45:13.989Z,3.65
2018-05-11T01:47:40.389Z,3.58
2018-05-11T01:50:06.810Z,3.50
2018-05-11T01:52:33.258Z,3.40
2018-05-11T01:54:59.734Z,3.58
2018-05-11T01:57:26.885Z,3.40
2018-05-11T01:59:54.095Z,3.80
2018-05-11T02:02:20.472Z,3.62
2018-05-11T02:04:47.737Z,3.97
2018-05-11T02:07:14.963Z,4.00
2018-05-11T02:09:41.393Z,3.75
2018-05-11T02:12:07.798Z,4.00
2018-05-11T02:14:34.200Z,3.80
2018-05-11T02:17:00.620Z,3.85
2018-05-11T02:19:27.773Z,3.90
2018-05-11T02:21:54.207Z,4.30
2018-05-11T02:24:20.638Z,4.20
2018-05-11T02:26:47.903Z,4.10
2018-05-11T02:29:14.398Z,4.15
2018-05-11T02:31:40.811Z,4.40
2018-05-11T02:34:07.242Z,5.00
2018-05-11T02:36:33.716Z,4.55
2018-05-11T02:39:00.667Z,4.55
2018-05-11T02:41:27.174Z,4.28
2018-05-11T02:43:53.749Z,4.37
2018-05-11T02:46:20.245Z,4.55
2018-05-11T02:48:46.721Z,4.95
2018-05-11T02:51:13.172Z,4.60
2018-05-11T02:53:39.617Z,4.78
2018-05-11T02:56:06.829Z,4.30
2018-05-11T02:58:33.250Z,4.25
2018-05-11T03:01:00.381Z,4.57
2018-05-11T03:03:26.848Z,5.50
2018-05-11T03:05:53.267Z,6.53
2018-05-11T03:08:20.449Z,4.72
2018-05-11T03:10:46.887Z,4.82
2018-05-11T03:13:13.325Z,4.70
2018-05-11T03:15:39.847Z,4.95
2018-05-11T03:18:06.362Z,4.57
2018-05-11T03:20:32.830Z,4.82
2018-05-11T03:22:59.337Z,4.90
2018-05-11T03:25:25.792Z,4.28
2018-05-11T03:27:52.229Z,4.93
2018-05-11T03:30:18.786Z,5.00
2018-05-11T03:32:46.740Z,4.85
2018-05-11T03:35:13.187Z,5.43
2018-05-11T03:37:39.690Z,5.28
2018-05-11T03:40:06.123Z,5.35
2018-05-11T03:42:32.621Z,5.05
2018-05-11T03:44:59.807Z,5.28
2018-05-11T03:47:26.236Z,5.20
2018-05-11T03:49:52.680Z,5.00
2018-05-11T03:52:19.146Z,5.15
2018-05-11T03:54:45.561Z,6.30
2018-05-11T03:57:11.992Z,5.60
2018-05-11T03:59:38.431Z,4.72
2018-05-11T04:02:23.542Z,5.45
2018-05-11T04:05:09.065Z,5.12
2018-05-11T04:07:54.766Z,5.25
2018-05-11T04:10:21.291Z,4.87
2018-05-11T04:12:47.726Z,5.45
2018-05-11T04:15:14.117Z,5.55
2018-05-11T04:17:41.310Z,6.70
2018-05-11T04:20:08.005Z,5.78
2018-05-11T04:22:35.140Z,5.28
2018-05-11T04:25:02.349Z,5.60
2018-05-11T04:27:28.779Z,5.47
2018-05-11T04:29:56.071Z,5.60
2018-05-11T04:32:24.005Z,5.20
2018-05-11T04:34:51.130Z,5.12
2018-05-11T04:37:17.933Z,5.80
2018-05-11T04:39:44.722Z,5.60
2018-05-11T04:42:11.182Z,5.30
2018-05-11T04:44:38.367Z,5.20
2018-05-11T04:47:05.531Z,5.65
2018-05-11T04:49:32.021Z,5.53
2018-05-11T04:51:58.534Z,5.25
2018-05-11T04:54:24.981Z,5.05
2018-05-11T04:56:51.474Z,5.57
2018-05-11T04:59:25.223Z,6.03
2018-05-11T05:01:51.654Z,5.60
2018-05-11T05:04:18.163Z,5.87
2018-05-11T05:06:44.601Z,5.57
2018-05-11T05:09:11.032Z,5.07
2018-05-11T05:11:37.515Z,5.53
2018-05-11T05:14:04.726Z,5.90
2018-05-11T05:16:31.169Z,6.07
2018-05-11T05:18:57.959Z,5.75
2018-05-11T05:21:25.210Z,5.75
2018-05-11T05:23:53.561Z,5.97
2018-05-11T05:26:20.085Z,6.32
2018-05-11T05:28:46.499Z,5.80
2018-05-11T05:31:12.954Z,5.55
2018-05-11T05:33:39.469Z,5.82
2018-05-11T05:36:06.407Z,5.80
2018-05-11T05:38:33.090Z,5.53
2018-05-11T05:41:00.236Z,5.45
2018-05-11T05:43:26.699Z,5.60
2018-05-11T05:45:53.959Z,5.03
2018-05-11T05:48:21.133Z,5.95
2018-05-11T05:50:47.531Z,5.87
2018-05-11T05:53:14.742Z,5.47
2018-05-11T05:55:41.296Z,5.30
2018-05-11T05:58:08.478Z,5.55
2018-05-11T06:00:34.961Z,5.32
2018-05-11T06:03:01.400Z,5.53
2018-05-11T06:05:27.899Z,5.57
2018-05-11T06:07:54.280Z,6.35
2018-05-11T06:10:21.432Z,6.62
2018-05-11T06:12:48.642Z,6.85
2018-05-11T06:15:15.035Z,6.22
2018-05-11T06:17:42.553Z,6.47
2018-05-11T06:20:08.937Z,6.57
2018-05-11T06:22:35.772Z,6.15
2018-05-11T06:25:02.169Z,6.00
2018-05-11T06:27:28.647Z,6.25
2018-05-11T06:29:55.044Z,5.80
2018-05-11T06:32:21.805Z,7.70
2018-05-11T06:34:48.187Z,6.40
2018-05-11T06:37:14.913Z,7.45
2018-05-11T06:39:41.617Z,5.90
2018-05-11T06:42:08.911Z,6.25
2018-05-11T06:44:36.095Z,6.18
2018-05-11T06:47:02.613Z,5.50
2018-05-11T06:49:29.398Z,5.50
2018-05-11T06:51:55.999Z,6.22
2018-05-11T06:54:22.534Z,5.90
2018-05-11T06:56:49.771Z,5.55
2018-05-11T06:59:16.359Z,5.55
2018-05-11T07:01:42.860Z,5.17
2018-05-11T07:04:09.304Z,5.20
2018-05-11T07:06:36.446Z,5.90
2018-05-11T07:09:03.599Z,5.90
2018-05-11T07:11:31.288Z,5.97
2018-05-11T07:13:58.459Z,6.32
2018-05-11T07:16:24.967Z,6.05
2018-05-11T07:18:52.262Z,5.70
2018-05-11T07:21:18.957Z,7.53
2018-05-11T07:23:45.433Z,6.70
2018-05-11T07:26:12.650Z,6.68
2018-05-11T07:28:39.088Z,8.05
2018-05-11T07:31:05.611Z,7.57
2018-05-11T07:33:32.839Z,7.18
2018-05-11T07:36:00.818Z,7.93
2018-05-11T07:38:28.096Z,7.87
2018-05-11T07:40:54.535Z,10.70
2018-05-11T07:43:21.107Z,9.32
2018-05-11T07:45:48.214Z,8.95
2018-05-11T07:48:14.714Z,9.23
2018-05-11T07:50:41.972Z,10.10
2018-05-11T07:53:09.117Z,9.40
2018-05-11T07:55:35.682Z,10.13
2018-05-11T07:58:03.141Z,10.80
2018-05-11T08:00:30.360Z,10.52
2018-05-11T08:02:57.631Z,12.50
2018-05-11T08:05:24.298Z,13.02
2018-05-11T08:07:50.832Z,12.23
2018-05-11T08:10:17.392Z,12.55
2018-05-11T08:12:44.104Z,11.60
2018-05-11T08:15:10.586Z,11.00
2018-05-11T08:17:37.072Z,11.53
2018-05-11T08:20:03.526Z,13.43
2018-05-11T08:22:30.081Z,14.03
2018-05-11T08:24:56.624Z,11.83
2018-05-11T08:27:23.415Z,12.40
2018-05-11T08:29:51.388Z,11.60
2018-05-11T08:32:18.449Z,11.03
2018-05-11T08:34:45.127Z,11.83
2018-05-11T08:37:12.450Z,13.33
2018-05-11T08:39:39.746Z,13.20
2018-05-11T08:42:06.227Z,12.33
2018-05-11T08:44:32.973Z,13.00
2018-05-11T08:47:00.024Z,13.00
2018-05-11T08:49:26.718Z,13.10
2018-05-11T08:51:54.243Z,14.53
2018-05-11T08:54:21.133Z,13.60
2018-05-11T08:56:47.652Z,14.30
2018-05-11T08:59:14.390Z,13.27
2018-05-11T09:01:41.150Z,12.57
2018-05-11T09:04:07.961Z,12.77
2018-05-11T09:06:35.100Z,12.83
2018-05-11T09:09:01.560Z,12.07
2018-05-11T09:11:29.043Z,12.13
2018-05-11T09:13:56.715Z,12.57
2018-05-11T09:16:24.518Z,12.03
2018-05-11T09:18:51.111Z,12.00
2018-05-11T09:21:17.598Z,11.93
2018-05-11T09:23:45.301Z,11.47
2018-05-11T09:26:12.835Z,12.33
2018-05-11T09:28:39.405Z,12.50
2018-05-11T09:31:06.353Z,13.03
2018-05-11T09:33:32.750Z,12.10
2018-05-11T09:36:00.538Z,12.63
2018-05-11T09:38:27.209Z,12.97
2018-05-11T09:40:53.698Z,12.43
2018-05-11T09:43:20.164Z,12.43
2018-05-11T09:45:46.548Z,12.40
2018-05-11T09:48:13.664Z,12.70
2018-05-11T09:50:40.222Z,12.73
2018-05-11T09:53:08.189Z,13.83
2018-05-11T09:55:35.428Z,12.43
2018-05-11T09:58:01.797Z,13.23
2018-05-11T10:00:28.418Z,12.57
2018-05-11T10:02:54.914Z,13.03
2018-05-11T10:05:21.355Z,12.90
2018-05-11T10:07:47.986Z,12.20
2018-05-11T10:10:14.691Z,12.23
2018-05-11T10:12:41.159Z,11.50
2018-05-11T10:15:07.614Z,12.80
2018-05-11T10:17:34.114Z,11.50
2018-05-11T10:20:00.516Z,10.20
2018-05-11T10:22:28.271Z,10.83
2018-05-11T10:24:55.434Z,10.73
2018-05-11T10:27:22.177Z,10.10
2018-05-11T10:29:48.697Z,10.67
2018-05-11T10:32:16.173Z,10.17
2018-05-11T10:34:42.617Z,11.00
2018-05-11T10:37:09.226Z,9.83
2018-05-11T10:39:36.432Z,10.03
2018-05-11T10:42:02.862Z,8.80
2018-05-11T10:44:29.357Z,11.03
2018-05-11T10:46:55.789Z,10.43
2018-05-11T10:49:22.392Z,9.93
2018-05-11T10:51:49.682Z,9.90
2018-05-11T10:54:16.169Z,9.70
2018-05-11T10:56:42.571Z,10.10
2018-05-11T10:59:09.114Z,10.10
2018-05-11T11:01:35.632Z,10.70
2018-05-11T11:04:02.099Z,10.77
2018-05-11T11:06:28.540Z,10.53
2018-05-11T11:08:54.981Z,10.40
2018-05-11T11:11:21.453Z,11.60
2018-05-11T11:13:48.200Z,10.63
2018-05-11T11:16:14.709Z,10.53
2018-05-11T11:18:42.021Z,10.50
2018-05-11T11:21:08.460Z,11.17
2018-05-11T11:23:34.897Z,10.30
2018-05-11T11:26:01.965Z,11.00
2018-05-11T11:28:28.409Z,10.80
2018-05-11T11:30:56.671Z,11.17
2018-05-11T11:33:23.822Z,10.83
2018-05-11T11:35:51.155Z,10.43
2018-05-11T11:38:17.652Z,10.77
2018-05-11T11:40:44.115Z,9.83
2018-05-11T11:43:10.642Z,11.23
2018-05-11T11:45:37.110Z,11.20
2018-05-11T11:48:03.722Z,10.97
2018-05-11T11:50:30.255Z,10.90
2018-05-11T11:52:56.662Z,11.93
2018-05-11T11:55:23.051Z,12.07
2018-05-11T11:57:49.595Z,11.63
2018-05-11T12:00:16.872Z,10.30
2018-05-11T12:02:43.348Z,10.27
2018-05-11T12:05:10.155Z,11.30
2018-05-11T12:07:36.587Z,9.20
2018-05-11T12:10:03.035Z,9.17
2018-05-11T12:12:29.748Z,9.23
2018-05-11T12:14:56.163Z,9.07
2018-05-11T12:17:24.206Z,9.87
2018-05-11T12:19:50.935Z,11.73
2018-05-11T12:22:17.352Z,10.80
2018-05-11T12:24:43.788Z,10.27
2018-05-11T12:27:10.290Z,10.37
2018-05-11T12:29:37.333Z,10.50
2018-05-11T12:32:06.129Z,10.23
2018-05-11T12:34:32.829Z,9.40
2018-05-11T12:36:59.332Z,11.00
2018-05-11T12:39:25.863Z,10.80
2018-05-11T12:41:52.296Z,10.63
2018-05-11T12:44:18.756Z,10.60
2018-05-11T12:46:45.221Z,11.07
2018-05-11T12:49:12.390Z,11.60
2018-05-11T12:51:40.153Z,11.57
2018-05-11T12:54:06.642Z,11.13
2018-05-11T12:56:33.090Z,11.03
2018-05-11T12:59:00.491Z,11.60
2018-05-11T13:01:26.968Z,11.20
2018-05-11T13:03:53.507Z,11.40
2018-05-11T13:06:20.214Z,9.83
2018-05-11T13:08:47.159Z,11.37
2018-05-11T13:11:13.881Z,10.57
2018-05-11T13:13:40.942Z,10.13
2018-05-11T13:16:07.480Z,9.77
2018-05-11T13:18:34.334Z,10.40
2018-05-11T13:21:01.729Z,10.60
2018-05-11T13:23:28.941Z,9.90
2018-05-11T13:25:55.385Z,9.37
2018-05-11T13:28:22.226Z,11.60
2018-05-11T13:30:48.874Z,9.33
2018-05-11T13:33:15.298Z,9.60
2018-05-11T13:35:42.601Z,9.77
2018-05-11T13:38:09.100Z,11.10
2018-05-11T13:40:36.420Z,11.00
2018-05-11T13:43:03.270Z,10.83
2018-05-11T13:45:29.753Z,9.23
2018-05-11T13:47:56.140Z,9.93
2018-05-11T13:50:22.607Z,10.10
2018-05-11T13:52:49.759Z,9.47
2018-05-11T13:55:17.120Z,8.73
2018-05-11T13:57:44.769Z,9.67
2018-05-11T14:00:12.196Z,10.27
2018-05-11T14:02:38.653Z,10.80
2018-05-11T14:05:05.998Z,8.40
2018-05-11T14:07:32.419Z,9.40
2018-05-11T14:09:59.740Z,9.70
2018-05-11T14:12:26.414Z,8.37
2018-05-11T14:14:52.832Z,8.43
2018-05-11T14:17:19.529Z,9.40
2018-05-11T14:19:46.874Z,8.57
2018-05-11T14:22:14.061Z,8.40
2018-05-11T14:24:40.575Z,9.03
2018-05-11T14:27:07.058Z,8.47
2018-05-11T14:29:34.753Z,8.73
2018-05-11T14:32:01.994Z,8.93
2018-05-11T14:34:28.305Z,8.47
2018-05-11T14:36:54.728Z,9.27
2018-05-11T14:39:21.300Z,10.73
2018-05-11T14:41:47.824Z,8.67
2018-05-11T14:44:15.022Z,8.77
2018-05-11T14:46:42.233Z,8.80
2018-05-11T14:49:09.704Z,9.40
2018-05-11T14:51:36.821Z,9.40
2018-05-11T14:54:03.269Z,9.00
2018-05-11T14:56:29.801Z,7.80
2018-05-11T14:58:56.631Z,8.77
2018-05-11T15:01:23.140Z,9.93
2018-05-11T15:03:49.841Z,10.60
2018-05-11T15:06:16.977Z,10.27
2018-05-11T15:08:44.260Z,8.80
2018-05-11T15:11:10.985Z,8.07
2018-05-11T15:13:37.651Z,8.63
2018-05-11T15:16:04.170Z,8.80
2018-05-11T15:18:30.641Z,8.40
2018-05-11T15:20:57.092Z,9.33
2018-05-11T15:23:23.773Z,9.20
2018-05-11T15:25:51.091Z,10.17
2018-05-11T15:28:17.699Z,8.83
2018-05-11T15:30:44.429Z,9.10
2018-05-11T15:33:11.040Z,8.80
2018-05-11T15:35:37.439Z,9.97
2018-05-11T15:38:04.578Z,9.90
2018-05-11T15:40:31.112Z,9.67
2018-05-11T15:42:57.692Z,9.10
2018-05-11T15:45:24.859Z,8.77
2018-05-11T15:47:51.486Z,9.10
2018-05-11T15:50:17.917Z,9.27
2018-05-11T15:52:44.380Z,9.27
2018-05-11T15:55:11.096Z,9.33
2018-05-11T15:57:38.304Z,8.47
2018-05-11T16:00:05.508Z,9.40
2018-05-11T16:02:32.221Z,8.07
2018-05-11T16:04:58.858Z,8.80
2018-05-11T16:07:26.022Z,7.80
2018-05-11T16:09:52.798Z,8.87
2018-05-11T16:12:20.972Z,8.50
2018-05-11T16:14:47.522Z,9.00
2018-05-11T16:17:13.936Z,8.63
2018-05-11T16:19:40.540Z,8.37
2018-05-11T16:22:07.290Z,9.07
2018-05-11T16:24:33.850Z,9.03
2018-05-11T16:27:00.567Z,11.37
2018-05-11T16:29:29.368Z,8.70
2018-05-11T16:31:56.144Z,9.00
2018-05-11T16:34:23.567Z,8.50
2018-05-11T16:36:50.207Z,9.03
2018-05-11T16:39:18.674Z,8.57
2018-05-11T16:41:45.388Z,8.57
2018-05-11T16:44:13.054Z,8.30
2018-05-11T16:46:39.525Z,8.27
2018-05-11T16:49:06.183Z,8.70
2018-05-11T16:51:32.886Z,9.73
2018-05-11T16:53:59.589Z,9.77
2018-05-11T16:56:27.002Z,9.43
2018-05-11T16:58:53.965Z,9.63
2018-05-11T17:01:20.924Z,8.83
2018-05-11T17:03:48.074Z,10.30
2018-05-11T17:06:15.567Z,8.20
2018-05-11T17:08:42.048Z,8.77
2018-05-11T17:11:08.531Z,8.43
2018-05-11T17:13:35.261Z,8.30
2018-05-11T17:16:02.447Z,9.37
2018-05-11T17:18:28.953Z,8.43
2018-05-11T17:20:56.128Z,8.07
2018-05-11T17:23:22.533Z,8.47
2018-05-11T17:25:49.003Z,9.83
2018-05-11T17:28:15.391Z,8.37
2018-05-11T17:30:42.617Z,9.30
2018-05-11T17:33:09.290Z,9.60
2018-05-11T17:35:36.528Z,8.87
2018-05-11T17:38:03.841Z,9.07
2018-05-11T17:40:30.271Z,8.50
2018-05-11T17:42:56.722Z,8.83
2018-05-11T17:45:23.183Z,9.10
2018-05-11T17:47:50.598Z,8.37
2018-05-11T17:50:17.144Z,8.47
2018-05-11T17:52:44.300Z,8.23
2018-05-11T17:55:10.777Z,9.00
2018-05-11T17:57:37.210Z,10.17
2018-05-11T18:00:03.678Z,8.67
2018-05-11T18:02:30.104Z,10.70
2018-05-11T18:04:56.498Z,10.07
2018-05-11T18:07:23.654Z,14.53
2018-05-11T18:09:50.809Z,8.07
2018-05-11T18:12:17.215Z,9.23
2018-05-11T18:14:44.452Z,10.13
2018-05-11T18:17:10.824Z,9.57
2018-05-11T18:19:37.302Z,8.77
2018-05-11T18:22:03.781Z,10.70
2018-05-11T18:24:30.179Z,10.43
2018-05-11T18:26:56.579Z,11.13
2018-05-11T18:29:22.981Z,10.30
2018-05-11T18:31:49.423Z,9.40
2018-05-11T18:34:15.965Z,8.83
2018-05-11T18:36:44.609Z,9.80
2018-05-11T18:39:11.125Z,9.50
2018-05-11T18:41:37.536Z,8.50
2018-05-11T18:44:04.083Z,9.17
2018-05-11T18:46:31.586Z,9.07
2018-05-11T18:48:58.741Z,10.53
2018-05-11T18:51:25.767Z,9.30
2018-05-11T18:53:57.235Z,10.63
2018-05-11T18:56:24.715Z,10.47
2018-05-11T18:58:51.091Z,10.73
2018-05-11T19:01:18.265Z,9.97
2018-05-11T19:03:44.800Z,10.97
2018-05-11T19:06:11.185Z,11.17
2018-05-11T19:08:37.655Z,11.00
2018-05-11T19:11:04.319Z,11.07
2018-05-11T19:13:31.161Z,10.33
2018-05-11T19:15:57.577Z,11.20
2018-05-11T19:18:24.833Z,11.20
2018-05-11T19:20:51.963Z,11.17
2018-05-11T19:23:18.686Z,11.43
2018-05-11T19:25:45.156Z,12.00
2018-05-11T19:28:12.580Z,11.83
2018-05-11T19:30:39.051Z,11.87
2018-05-11T19:33:06.887Z,11.23
2018-05-11T19:35:33.487Z,11.90
2018-05-11T19:38:00.068Z,12.23
2018-05-11T19:40:26.662Z,13.30
2018-05-11T19:42:53.041Z,13.77
2018-05-11T19:45:19.389Z,13.13
2018-05-11T19:47:46.665Z,13.57
2018-05-11T19:50:13.130Z,13.43
2018-05-11T19:52:39.630Z,17.30
2018-05-11T19:55:06.884Z,14.33
2018-05-11T19:57:34.567Z,14.27
2018-05-11T20:00:01.112Z,13.43
2018-05-11T20:02:27.651Z,13.03
2018-05-11T20:04:54.071Z,14.20
2018-05-11T20:07:20.586Z,15.17
2018-05-11T20:09:47.545Z,13.00
2018-05-11T20:12:13.976Z,13.67
2018-05-11T20:14:40.477Z,13.30
2018-05-11T20:17:07.669Z,14.17
2018-05-11T20:19:34.078Z,14.67
2018-05-11T20:22:00.562Z,13.60
2018-05-11T20:24:26.998Z,13.77
2018-05-11T20:26:54.210Z,13.63
2018-05-11T20:29:20.722Z,13.33
2018-05-11T20:31:47.874Z,14.30
2018-05-11T20:34:14.413Z,13.53
2018-05-11T20:36:40.931Z,14.43
2018-05-11T20:39:08.130Z,17.27
2018-05-11T20:41:36.259Z,15.63
2018-05-11T20:44:02.734Z,16.30
2018-05-11T20:46:29.274Z,15.70
2018-05-11T20:48:55.714Z,15.30
2018-05-11T20:51:22.193Z,15.07
2018-05-11T20:53:49.422Z,15.10
2018-05-11T20:56:16.001Z,15.37
2018-05-11T20:58:42.574Z,15.90
2018-05-11T21:01:09.857Z,15.50
2018-05-11T21:03:37.350Z,14.30
2018-05-11T21:06:03.829Z,15.40
2018-05-11T21:08:30.324Z,14.03
2018-05-11T21:10:56.814Z,14.70
2018-05-11T21:13:24.672Z,15.77
2018-05-11T21:15:52.105Z,14.17
2018-05-11T21:18:18.616Z,13.83
2018-05-11T21:20:45.180Z,14.77
2018-05-11T21:23:12.209Z,15.50
2018-05-11T21:25:38.710Z,15.13
2018-05-11T21:28:05.294Z,16.33
2018-05-11T21:30:31.809Z,22.20
2018-05-11T21:32:58.408Z,16.90
2018-05-11T21:35:25.622Z,18.07
2018-05-11T21:37:52.182Z,15.97
2018-05-11T21:40:18.819Z,17.57
2018-05-11T21:42:46.040Z,15.15
2018-05-11T21:45:12.522Z,15.88
2018-05-11T21:47:39.274Z,19.92
2018-05-11T21:50:05.815Z,22.70
2018-05-11T21:52:32.412Z,18.17
2018-05-11T21:54:59.161Z,17.00
2018-05-11T21:57:26.585Z,17.20
2018-05-11T21:59:53.050Z,15.45
2018-05-11T22:02:20.204Z,16.08
2018-05-11T22:04:47.504Z,16.60
2018-05-11T22:07:13.976Z,15.98
2018-05-11T22:09:41.199Z,16.00
2018-05-11T22:12:07.618Z,39.22
2018-05-11T22:14:34.030Z,17.65
2018-05-11T22:17:00.551Z,17.87
2018-05-11T22:19:27.670Z,16.05
2018-05-11T22:21:54.142Z,17.55
2018-05-11T22:24:20.529Z,16.87
2018-05-11T22:26:46.920Z,16.17
2018-05-11T22:29:13.483Z,15.60
2018-05-11T22:31:39.939Z,16.02
2018-05-11T22:34:06.389Z,15.93
2018-05-11T22:36:33.527Z,17.55
2018-05-11T22:39:00.104Z,17.70
2018-05-11T22:41:26.588Z,17.35
2018-05-11T22:43:53.132Z,16.25
2018-05-11T22:46:20.362Z,15.40
2018-05-11T22:48:47.269Z,15.55
2018-05-11T22:51:13.691Z,15.63
2018-05-11T22:53:40.877Z,16.13
2018-05-11T22:56:07.407Z,15.30
2018-05-11T22:58:33.842Z,16.80
2018-05-11T23:01:00.636Z,15.97
2018-05-11T23:03:28.250Z,18.30
2018-05-11T23:05:54.715Z,17.92
2018-05-11T23:08:21.935Z,16.23
2018-05-11T23:10:48.647Z,15.65
2018-05-11T23:13:15.938Z,16.55
2018-05-11T23:15:42.464Z,16.85
2018-05-11T23:18:08.922Z,16.40
2018-05-11T23:20:35.600Z,17.00
2018-05-11T23:23:02.014Z,14.73
2018-05-11T23:25:29.197Z,18.52
2018-05-11T23:27:55.650Z,19.60
2018-05-11T23:30:22.363Z,18.60
2018-05-11T23:32:48.867Z,16.87
2018-05-11T23:35:16.000Z,16.87
2018-05-11T23:37:43.881Z,16.98
2018-05-11T23:40:11.037Z,15.90
2018-05-11T23:42:38.411Z,16.65
2018-05-11T23:45:04.819Z,17.17
2018-05-11T23:47:31.249Z,17.00
2018-05-11T23:49:57.721Z,16.57
2018-05-11T23:52:24.627Z,17.37
2018-05-11T23:54:52.095Z,16.90
2018-05-11T23:57:18.759Z,16.77
2018-05-11T23:59:45.474Z,16.83
